Time;durP1;ratioP1;P1;durP2;ratioP2;P2;SDS_P1;SDS_P2;PMS_P1;PMS_P2;Temp;Humidity;BMP_temperature;BMP_pressure;BME280_temperature;BME280_humidity;BME280_pressure;Samples;Min_cycle;Max_cycle;Signal;HPM_P1;HPM_P2
2022/10/16 00:01:13;;;;;;;;;;;;;;;19.97;47.85;95768.63;6117652;19;1529;-86
2022/10/16 00:03:16;;;;;;;;;;;;;;;19.98;47.55;95778.28;6119247;19;1473;-85
2022/10/16 00:05:20;;;;;;;;;;;;;;;19.97;47.74;95777.44;6119565;19;1381;-85
2022/10/16 00:07:29;;;;;;;;;;;;;;;19.98;47.81;95778.28;6117720;19;1405;-86
2022/10/16 00:09:33;;;;;;;;;;;;;;;19.96;47.65;95774.97;6102063;19;1482;-86
2022/10/16 00:11:38;;;;;;;;;;;;;;;19.96;47.98;95780.31;6118138;19;1391;-85
2022/10/16 00:13:42;;;;;;;;;;;;;;;19.96;47.68;95780.31;6119092;19;1546;-86
2022/10/16 00:15:46;;;;;;;;;;;;;;;19.96;47.62;95780.31;6120375;19;1865;-86
2022/10/16 00:17:49;;;;;;;;;;;;;;;19.94;47.95;95775.16;6119237;19;1361;-85
2022/10/16 00:19:53;;;;;;;;;;;;;;;19.96;47.86;95782.97;6102350;19;1069;-86
2022/10/16 00:21:56;;;;;;;;;;;;;;;19.95;47.87;95790.16;6119423;19;1098;-86
2022/10/16 00:24:04;;;;;;;;;;;;;;;19.95;47.85;95786.66;6120903;19;1009;-86
2022/10/16 00:26:08;;;;;;;;;;;;;;;19.95;47.60;95786.66;6121265;19;1175;-86
2022/10/16 00:28:12;;;;;;;;;;;;;;;19.95;47.53;95795.50;6118645;19;1371;-86
2022/10/16 00:30:15;;;;;;;;;;;;;;;19.95;48.02;95790.16;6112822;19;1536;-84
2022/10/16 00:32:19;;;;;;;;;;;;;;;19.93;47.65;95792.19;6108806;19;1521;-86
2022/10/16 00:34:22;;;;;;;;;;;;;;;19.97;48.02;95796.09;6120127;19;1030;-86
2022/10/16 00:36:26;;;;;;;;;;;;;;;19.97;47.70;95800.63;6117413;19;1849;-85
2022/10/16 00:38:29;;;;;;;;;;;;;;;19.96;47.98;95802.47;6118874;19;1069;-85
2022/10/16 00:40:35;;;;;;;;;;;;;;;19.95;47.76;95805.34;6122851;19;1385;-85
2022/10/16 00:42:39;;;;;;;;;;;;;;;19.95;47.95;95803.50;6109620;19;1144;-85
2022/10/16 00:45:00;;;;;;;;;;;;;;;19.95;47.81;95795.50;6126056;19;1108;-85
2022/10/16 00:47:03;;;;;;;;;;;;;;;19.96;47.90;95798.97;6126707;19;1466;-85
2022/10/16 00:49:08;;;;;;;;;;;;;;;19.94;47.96;95798.34;6125422;19;1068;-85
2022/10/16 00:51:12;;;;;;;;;;;;;;;19.94;47.97;95793.00;6124948;19;1045;-86
2022/10/16 00:53:15;;;;;;;;;;;;;;;19.93;47.82;95796.69;6117247;19;1157;-85
2022/10/16 00:55:18;;;;;;;;;;;;;;;19.93;47.54;95797.53;6114348;19;1853;-84
2022/10/16 00:57:25;;;;;;;;;;;;;;;19.93;47.82;95796.69;6124402;19;1076;-84
2022/10/16 00:59:29;;;;;;;;;;;;;;;19.93;47.51;95797.53;6124225;19;1066;-84
2022/10/16 01:01:33;;;;;;;;;;;;;;;19.93;47.58;95797.53;6123111;19;1459;-85
2022/10/16 01:03:37;;;;;;;;;;;;;;;19.93;47.62;95807.38;6125613;19;1022;-86
2022/10/16 01:05:48;;;;;;;;;;;;;;;19.92;48.10;95811.03;6106001;19;1144;-85
2022/10/16 01:07:56;;;;;;;;;;;;;;;19.92;47.80;95811.88;6122421;19;1474;-85
2022/10/16 01:10:04;;;;;;;;;;;;;;;19.93;47.68;95818.03;6124516;19;1014;-84
2022/10/16 01:12:11;;;;;;;;;;;;;;;19.92;48.00;95821.69;6124932;19;1042;-85
2022/10/16 01:14:22;;;;;;;;;;;;;;;19.91;47.79;95818.22;6124167;19;1073;-84
2022/10/16 01:16:32;;;;;;;;;;;;;;;19.90;48.02;95824.56;6108049;19;1861;-84
2022/10/16 01:18:38;;;;;;;;;;;;;;;19.88;47.82;95811.41;6122136;19;1494;-85
2022/10/16 01:20:45;;;;;;;;;;;;;;;19.88;47.72;95814.06;6123610;19;1065;-85
2022/10/16 01:22:56;;;;;;;;;;;;;;;19.87;48.00;95814.28;6122834;19;1414;-84
2022/10/16 01:25:04;;;;;;;;;;;;;;;19.87;47.96;95809.75;6124429;19;1078;-83
2022/10/16 01:27:13;;;;;;;;;;;;;;;19.87;47.87;95799.09;6116885;19;1101;-84
2022/10/16 01:29:20;;;;;;;;;;;;;;;19.87;47.73;95804.44;6116248;19;1058;-85
2022/10/16 01:31:26;;;;;;;;;;;;;;;19.87;47.76;95807.09;6124769;19;1025;-85
2022/10/16 01:33:33;;;;;;;;;;;;;;;19.86;48.01;95800.13;6124523;19;1048;-85
2022/10/16 01:35:38;;;;;;;;;;;;;;;19.89;48.08;95791.75;6123811;19;1847;-86
2022/10/16 01:37:44;;;;;;;;;;;;;;;19.89;47.79;95796.25;6123792;19;1411;-86
2022/10/16 01:39:50;;;;;;;;;;;;;;;19.96;47.87;95791.81;6107439;19;1092;-92
2022/10/16 01:41:58;;;;;;;;;;;;;;;20.03;47.73;95791.88;6123734;19;1634;-88
2022/10/16 01:44:05;;;;;;;;;;;;;;;20.06;47.50;95794.16;6121105;19;1459;-81
2022/10/16 01:46:09;;;;;;;;;;;;;;;20.03;47.38;95794.53;6122732;19;1108;-86
2022/10/16 01:48:14;;;;;;;;;;;;;;;20.04;47.48;95798.88;6122326;19;1576;-84
2022/10/16 01:50:19;;;;;;;;;;;;;;;20.01;47.50;95800.06;6111910;19;1460;-84
2022/10/16 01:52:25;;;;;;;;;;;;;;;19.97;47.38;95803.28;6118099;19;1027;-84
2022/10/16 01:54:30;;;;;;;;;;;;;;;19.95;47.39;95808.00;6122029;19;1478;-84
2022/10/16 01:56:34;;;;;;;;;;;;;;;19.93;47.37;95818.03;6122656;19;1845;-84
2022/10/16 01:58:40;;;;;;;;;;;;;;;19.91;47.51;95809.38;6121578;19;1488;-84
2022/10/16 02:00:48;;;;;;;;;;;;;;;19.90;47.65;95811.22;6122908;19;1112;-85
2022/10/16 02:02:53;;;;;;;;;;;;;;;19.88;47.51;95808.75;6104956;19;1376;-84
2022/10/16 02:05:00;;;;;;;;;;;;;;;19.89;47.97;95809.59;6122785;19;1530;-85
2022/10/16 02:07:04;;;;;;;;;;;;;;;19.88;47.87;95810.59;6124181;19;1356;-84
2022/10/16 02:09:07;;;;;;;;;;;;;;;19.88;47.70;95821.25;6121875;19;1454;-85
2022/10/16 02:11:10;;;;;;;;;;;;;;;19.89;47.67;95812.25;6120776;19;1442;-85
2022/10/16 02:13:19;;;;;;;;;;;;;;;19.86;47.74;95816.13;6106036;19;1068;-85
2022/10/16 02:15:22;;;;;;;;;;;;;;;19.88;47.80;95819.41;6123730;19;1034;-84
2022/10/16 02:17:29;;;;;;;;;;;;;;;19.88;47.80;95822.06;6121258;19;1306;-84
2022/10/16 02:19:32;;;;;;;;;;;;;;;19.89;47.67;95828.25;6122800;19;1045;-85
2022/10/16 02:21:41;;;;;;;;;;;;;;;19.87;47.96;95831.09;6122346;19;1103;-85
2022/10/16 02:23:48;;;;;;;;;;;;;;;19.88;48.07;95832.75;6114855;19;1001;-84
2022/10/16 02:25:52;;;;;;;;;;;;;;;19.88;48.05;95831.91;6112622;19;1483;-84
2022/10/16 02:27:58;;;;;;;;;;;;;;;19.88;47.84;95832.75;6121951;19;1171;-85
2022/10/16 02:30:07;;;;;;;;;;;;;;;19.87;47.91;95835.63;6122452;19;1051;-81
2022/10/16 02:32:12;;;;;;;;;;;;;;;19.87;48.17;95835.63;6122340;19;1163;-84
2022/10/16 02:34:19;;;;;;;;;;;;;;;19.86;47.91;95829.47;6120312;19;1480;-85
2022/10/16 02:36:23;;;;;;;;;;;;;;;19.86;47.97;95839.28;6104729;19;1845;-84
2022/10/16 02:38:28;;;;;;;;;;;;;;;19.85;48.16;95842.97;6122788;19;1116;-85
2022/10/16 02:40:31;;;;;;;;;;;;;;;19.85;48.21;95835.78;6122013;19;1034;-85
2022/10/16 02:42:36;;;;;;;;;;;;;;;19.85;48.07;95835.78;6120468;19;1356;-84
2022/10/16 02:44:40;;;;;;;;;;;;;;;19.87;47.64;95846.28;6122359;19;997;-84
2022/10/16 02:46:43;;;;;;;;;;;;;;;19.87;47.99;95839.09;6113680;19;1028;-84
2022/10/16 02:48:46;;;;;;;;;;;;;;;19.85;48.01;95838.44;6112742;19;1380;-84
2022/10/16 02:50:52;;;;;;;;;;;;;;;19.85;48.16;95850.97;6119541;19;1514;-84
2022/10/16 02:52:56;;;;;;;;;;;;;;;19.83;47.87;95845.84;6121652;19;1107;-84
2022/10/16 02:54:59;;;;;;;;;;;;;;;19.84;48.16;95844.00;6121409;19;1334;-85
2022/10/16 02:57:02;;;;;;;;;;;;;;;19.82;48.13;95848.69;6120975;19;1852;-84
2022/10/16 02:59:06;;;;;;;;;;;;;;;19.81;47.75;95852.38;6103118;19;1470;-84
2022/10/16 03:01:09;;;;;;;;;;;;;;;19.83;48.03;95850.31;6121718;19;958;-83
2022/10/16 03:03:13;;;;;;;;;;;;;;;19.87;48.11;95851.63;6117902;19;1426;-84
2022/10/16 03:05:16;;;;;;;;;;;;;;;19.89;47.75;95858.41;6121373;19;1082;-86
2022/10/16 03:07:22;;;;;;;;;;;;;;;19.87;48.35;95855.09;6122611;19;1017;-86
2022/10/16 03:09:26;;;;;;;;;;;;;;;19.87;48.37;95854.28;6112390;19;1032;-86
2022/10/16 03:11:29;;;;;;;;;;;;;;;19.86;48.19;95852.59;6114489;19;1116;-86
2022/10/16 03:13:32;;;;;;;;;;;;;;;19.84;48.17;95858.16;6121127;19;1554;-87
2022/10/16 03:15:36;;;;;;;;;;;;;;;19.94;48.20;95857.84;6120847;19;1383;-89
2022/10/16 03:17:40;;;;;;;;;;;;;;;19.77;48.24;95843.06;6121691;19;1845;-92
2022/10/16 03:19:44;;;;;;;;;;;;;;;19.97;47.88;95867.31;6119574;19;1398;-85
2022/10/16 03:21:47;;;;;;;;;;;;;;;19.38;43.58;95868.16;6103832;19;1587;-85
2022/10/16 03:23:53;;;;;;;;;;;;;;;18.58;41.78;95861.56;6120247;19;1621;-84
2022/10/16 03:25:57;;;;;;;;;;;;;;;18.13;41.30;95867.69;6121003;19;1171;-84
2022/10/16 03:28:00;;;;;;;;;;;;;;;17.86;40.45;95873.28;6121317;19;1405;-84
2022/10/16 03:30:03;;;;;;;;;;;;;;;17.69;40.09;95870.84;6120492;19;1152;-85
2022/10/16 03:32:07;;;;;;;;;;;;;;;17.50;39.51;95872.91;6114005;19;1030;-84
2022/10/16 03:34:10;;;;;;;;;;;;;;;17.50;39.22;95872.91;6111215;19;1516;-85
2022/10/16 03:36:13;;;;;;;;;;;;;;;17.41;38.73;95876.56;6119039;19;1853;-84
2022/10/16 03:38:17;;;;;;;;;;;;;;;17.32;38.94;95864.31;6118967;19;1555;-85
2022/10/16 03:40:23;;;;;;;;;;;;;;;17.26;38.50;95875.63;6121220;19;1001;-84
2022/10/16 03:42:24;;;;;;;;;;;;;;;17.15;38.50;95872.31;6121119;19;1069;-84
2022/10/16 03:44:27;;;;;;;;;;;;;;;17.11;38.49;95872.84;6105249;19;1150;-85
2022/10/16 03:46:31;;;;;;;;;;;;;;;17.04;39.02;95867.34;6118863;19;1633;-84
2022/10/16 03:48:34;;;;;;;;;;;;;;;16.96;38.74;95867.41;6120648;19;1080;-86
2022/10/16 03:50:37;;;;;;;;;;;;;;;16.91;38.80;95861.75;6121485;19;1529;-88
2022/10/16 03:52:41;;;;;;;;;;;;;;;16.93;38.77;95865.03;6121637;19;1064;-84
2022/10/16 03:54:44;;;;;;;;;;;;;;;17.48;39.73;95868.78;6112869;19;1340;-85
2022/10/16 03:56:50;;;;;;;;;;;;;;;17.86;39.75;95854.66;6110153;19;1863;-87
2022/10/16 03:58:53;;;;;;;;;;;;;;;18.14;39.83;95853.38;6120220;19;1546;-85
2022/10/16 04:00:57;;;;;;;;;;;;;;;18.35;40.03;95858.03;6121820;19;1166;-87
2022/10/16 04:03:00;;;;;;;;;;;;;;;18.48;40.13;95856.44;6120559;19;1096;-87
2022/10/16 04:05:03;;;;;;;;;;;;;;;18.60;40.43;95864.03;6118910;19;1395;-87
2022/10/16 04:07:07;;;;;;;;;;;;;;;18.69;40.58;95862.97;6104182;19;1095;-86
2022/10/16 04:09:10;;;;;;;;;;;;;;;18.75;40.75;95862.25;6121492;19;1382;-86
2022/10/16 04:11:14;;;;;;;;;;;;;;;18.80;40.92;95859.88;6119403;19;1450;-86
2022/10/16 04:13:20;;;;;;;;;;;;;;;18.87;40.75;95862.69;6120496;19;1100;-82
2022/10/16 04:15:23;;;;;;;;;;;;;;;18.90;40.83;95865.78;6123588;19;1025;-80
2022/10/16 04:17:26;;;;;;;;;;;;;;;18.94;40.87;95856.44;6116096;19;1863;-87
2022/10/16 04:19:30;;;;;;;;;;;;;;;18.97;41.02;95858.72;6116930;19;1486;-85
2022/10/16 04:21:33;;;;;;;;;;;;;;;18.99;41.25;95859.38;6126550;19;1026;-87
2022/10/16 04:23:36;;;;;;;;;;;;;;;19.05;41.61;95859.66;6123745;19;1456;-85
2022/10/16 04:25:40;;;;;;;;;;;;;;;19.08;41.56;95864.63;6124538;19;1104;-84
2022/10/16 04:27:43;;;;;;;;;;;;;;;19.10;41.50;95870.63;6125731;19;970;-85
2022/10/16 04:29:49;;;;;;;;;;;;;;;19.12;41.41;95861.44;6109821;19;1407;-88
2022/10/16 04:31:52;;;;;;;;;;;;;;;19.15;41.88;95862.88;6126684;19;851;-86
2022/10/16 04:33:56;;;;;;;;;;;;;;;19.16;41.98;95859.22;6122743;19;1490;-86
2022/10/16 04:35:59;;;;;;;;;;;;;;;19.19;41.72;95867.69;6125867;19;1097;-86
2022/10/16 04:38:03;;;;;;;;;;;;;;;19.20;42.02;95866.66;6122663;19;1833;-86
2022/10/16 04:40:07;;;;;;;;;;;;;;;19.22;42.31;95869.97;6116964;19;1155;-86
2022/10/16 04:42:11;;;;;;;;;;;;;;;18.71;41.35;95877.75;6118363;19;993;-85
2022/10/16 04:44:14;;;;;;;;;;;;;;;18.16;41.55;95886.78;6127399;19;1093;-89
2022/10/16 04:46:20;;;;;;;;;;;;;;;17.89;41.85;95885.41;6125628;19;1415;-88
2022/10/16 04:48:23;;;;;;;;;;;;;;;17.80;41.51;95889.94;6124029;19;1601;-88
2022/10/16 04:50:27;;;;;;;;;;;;;;;17.77;41.63;95886.78;6127948;19;1454;-88
2022/10/16 04:52:31;;;;;;;;;;;;;;;17.69;41.61;95894.75;6109575;19;1084;-89
2022/10/16 04:54:34;;;;;;;;;;;;;;;17.68;41.96;95901.09;6126263;19;1415;-89
2022/10/16 04:56:43;;;;;;;;;;;;;;;17.76;41.38;95888.63;6127681;19;1860;-91
2022/10/16 04:58:46;;;;;;;;;;;;;;;17.74;41.24;95893.28;6128515;19;1032;-90
2022/10/16 05:00:49;;;;;;;;;;;;;;;17.78;41.12;95891.91;6127537;19;1435;-90
2022/10/16 05:02:55;;;;;;;;;;;;;;;17.81;41.34;95898.72;6117055;19;1029;-88
2022/10/16 05:04:58;;;;;;;;;;;;;;;17.86;41.01;95901.69;6118771;19;1500;-87
2022/10/16 05:07:02;;;;;;;;;;;;;;;17.69;41.37;95908.88;6125002;19;1363;-91
2022/10/16 05:09:05;;;;;;;;;;;;;;;17.66;41.15;95915.34;6126738;19;1067;-86
2022/10/16 05:11:09;;;;;;;;;;;;;;;17.71;41.27;95912.19;6125340;19;1121;-85
2022/10/16 05:13:12;;;;;;;;;;;;;;;17.76;40.72;95922.34;6123001;19;1473;-90
2022/10/16 05:15:16;;;;;;;;;;;;;;;17.57;41.31;95913.72;6106993;19;1408;-86
2022/10/16 05:17:19;;;;;;;;;;;;;;;17.61;40.92;95925.69;6123705;19;1849;-91
2022/10/16 05:19:25;;;;;;;;;;;;;;;17.55;41.14;95918.38;6126355;19;1381;-89
2022/10/16 05:21:29;;;;;;;;;;;;;;;17.71;40.98;95924.66;6124513;19;995;-82
2022/10/16 05:23:32;;;;;;;;;;;;;;;18.19;41.22;95921.00;6124771;19;1459;-88
2022/10/16 05:25:35;;;;;;;;;;;;;;;18.44;41.05;95929.69;6113639;19;1396;-86
2022/10/16 05:27:39;;;;;;;;;;;;;;;18.57;40.90;95926.41;6117347;19;1029;-86
2022/10/16 05:29:42;;;;;;;;;;;;;;;18.67;41.35;95923.56;6124081;19;1458;-88
2022/10/16 05:31:46;;;;;;;;;;;;;;;18.74;41.53;95927.16;6124650;19;1111;-88
2022/10/16 05:33:49;;;;;;;;;;;;;;;18.80;41.40;95922.97;6124136;19;1394;-86
2022/10/16 05:35:55;;;;;;;;;;;;;;;18.83;41.67;95923.44;6125410;19;1076;-86
2022/10/16 05:37:58;;;;;;;;;;;;;;;18.89;41.88;95924.56;6107778;19;1860;-88
2022/10/16 05:40:02;;;;;;;;;;;;;;;18.92;41.90;95930.38;6121966;19;1482;-86
2022/10/16 05:42:06;;;;;;;;;;;;;;;18.96;41.96;95926.31;6125821;19;995;-87
2022/10/16 05:44:09;;;;;;;;;;;;;;;18.98;42.11;95932.31;6125671;19;1051;-85
2022/10/16 05:46:13;;;;;;;;;;;;;;;19.05;41.85;95937.75;6123865;19;1411;-88
2022/10/16 05:48:16;;;;;;;;;;;;;;;19.11;42.32;95933.53;6119316;19;1421;-88
2022/10/16 05:50:20;;;;;;;;;;;;;;;19.13;42.45;95936.84;6114294;19;1338;-86
2022/10/16 05:52:26;;;;;;;;;;;;;;;19.17;42.42;95940.81;6121463;19;1400;-80
2022/10/16 05:54:29;;;;;;;;;;;;;;;19.10;41.62;95934.56;6119847;19;1338;-80
2022/10/16 05:56:32;;;;;;;;;;;;;;;19.11;42.09;95946.84;6122786;19;1053;-81
2022/10/16 05:58:40;;;;;;;;;;;;;;;19.14;42.02;95946.50;6120742;19;1845;-84
2022/10/16 06:00:43;;;;;;;;;;;;;;;19.19;42.11;95949.44;6107080;19;1040;-87
2022/10/16 06:02:46;;;;;;;;;;;;;;;19.20;42.61;95951.09;6124120;19;1499;-87
2022/10/16 06:04:50;;;;;;;;;;;;;;;19.21;42.68;95952.78;6124937;19;1143;-85
2022/10/16 06:06:54;;;;;;;;;;;;;;;19.24;42.40;95954.25;6122786;19;1402;-82
2022/10/16 06:09:00;;;;;;;;;;;;;;;19.25;42.48;95962.03;6120056;19;1376;-84
2022/10/16 06:11:04;;;;;;;;;;;;;;;19.26;42.76;95955.69;6116035;19;1081;-85
2022/10/16 06:13:07;;;;;;;;;;;;;;;19.27;42.63;95960.03;6115562;19;1020;-85
2022/10/16 06:15:11;;;;;;;;;;;;;;;19.30;42.82;95966.84;6123286;19;1140;-84
2022/10/16 06:17:14;;;;;;;;;;;;;;;19.31;42.90;95968.50;6122915;19;1813;-83
2022/10/16 06:19:18;;;;;;;;;;;;;;;19.31;42.62;95964.00;6125416;19;1002;-83
2022/10/16 06:21:24;;;;;;;;;;;;;;;19.32;42.64;95971.00;6123804;19;1073;-82
2022/10/16 06:23:28;;;;;;;;;;;;;;;19.32;42.94;95971.00;6103248;19;1427;-82
2022/10/16 06:25:34;;;;;;;;;;;;;;;19.35;42.73;95969.78;6123931;19;1131;-82
2022/10/16 06:27:37;;;;;;;;;;;;;;;19.36;43.15;95977.59;6121205;19;1590;-82
2022/10/16 06:29:40;;;;;;;;;;;;;;;19.36;43.18;95988.25;6120918;19;1103;-85
2022/10/16 06:31:44;;;;;;;;;;;;;;;19.38;43.17;95982.78;6120222;19;1490;-83
2022/10/16 06:33:48;;;;;;;;;;;;;;;19.38;42.90;95985.44;6108073;19;1477;-84
2022/10/16 06:35:51;;;;;;;;;;;;;;;19.39;42.95;95987.09;6121094;19;1441;-84
2022/10/16 06:37:55;;;;;;;;;;;;;;;19.40;43.15;95986.88;6118505;19;1849;-84
2022/10/16 06:39:59;;;;;;;;;;;;;;;19.40;43.32;95986.88;6123123;19;1016;-83
2022/10/16 06:42:05;;;;;;;;;;;;;;;19.41;43.38;95993.06;6122114;19;1545;-85
2022/10/16 06:44:09;;;;;;;;;;;;;;;19.42;43.34;95989.38;6123521;19;1387;-88
2022/10/16 06:46:13;;;;;;;;;;;;;;;19.45;43.11;95994.34;6103751;19;1367;-82
2022/10/16 06:48:16;;;;;;;;;;;;;;;19.39;43.38;95993.22;6120835;19;1065;-82
2022/10/16 06:50:20;;;;;;;;;;;;;;;19.32;43.39;95997.66;6119594;19;1496;-82
2022/10/16 06:52:23;;;;;;;;;;;;;;;19.29;43.34;96000.66;6122235;19;1033;-81
2022/10/16 06:54:26;;;;;;;;;;;;;;;19.33;42.86;96004.63;6123220;19;1316;-88
2022/10/16 06:56:30;;;;;;;;;;;;;;;19.38;42.76;96006.75;6114203;19;1132;-89
2022/10/16 06:58:36;;;;;;;;;;;;;;;19.39;42.81;96009.22;6121840;19;1834;-86
2022/10/16 07:00:40;;;;;;;;;;;;;;;19.42;42.58;96006.19;6121548;19;1404;-89
2022/10/16 07:02:43;;;;;;;;;;;;;;;19.43;42.93;96010.53;6124564;19;1468;-85
2022/10/16 07:04:46;;;;;;;;;;;;;;;19.43;43.10;96010.53;6121245;19;1391;-84
2022/10/16 07:06:51;;;;;;;;;;;;;;;19.45;43.08;96018.34;6122408;19;1490;-84
2022/10/16 07:08:54;;;;;;;;;;;;;;;19.45;42.90;96013.81;6107788;19;982;-89
2022/10/16 07:11:02;;;;;;;;;;;;;;;19.47;43.00;96008.34;6123054;19;1576;-90
2022/10/16 07:13:07;;;;;;;;;;;;;;;19.46;42.85;96012.00;6132747;19;1046;-88
2022/10/16 07:15:13;;;;;;;;;;;;;;;19.48;43.16;96011.81;6122412;19;1203;-86
2022/10/16 07:17:16;;;;;;;;;;;;;;;19.48;43.15;96014.50;6122143;19;1496;-88
2022/10/16 07:19:20;;;;;;;;;;;;;;;19.48;43.26;96019.81;6104436;19;1842;-87
2022/10/16 07:21:25;;;;;;;;;;;;;;;19.48;43.34;96019.81;6120368;19;1489;-87
2022/10/16 07:23:28;;;;;;;;;;;;;;;19.50;43.25;96025.81;6122688;19;1515;-87
2022/10/16 07:25:32;;;;;;;;;;;;;;;19.50;43.28;96023.16;6122317;19;1010;-87
2022/10/16 07:27:35;;;;;;;;;;;;;;;19.50;43.33;96025.81;6122855;19;1033;-88
2022/10/16 07:29:38;;;;;;;;;;;;;;;19.49;43.54;96022.31;6123497;19;1098;-88
2022/10/16 07:31:45;;;;;;;;;;;;;;;19.49;43.15;96024.97;6104736;19;1182;-87
2022/10/16 07:33:49;;;;;;;;;;;;;;;19.50;43.31;96026.63;6121903;19;1500;-87
2022/10/16 07:35:53;;;;;;;;;;;;;;;19.50;43.63;96023.16;6122038;19;1036;-88
2022/10/16 07:37:56;;;;;;;;;;;;;;;19.50;43.68;96028.47;6121007;19;1865;-87
2022/10/16 07:39:59;;;;;;;;;;;;;;;19.50;43.64;96023.97;6121162;19;1473;-86
2022/10/16 07:42:03;;;;;;;;;;;;;;;19.51;43.47;96024.78;6103776;19;1109;-82
2022/10/16 07:44:06;;;;;;;;;;;;;;;19.54;43.18;96032.47;6117668;19;1402;-82
2022/10/16 07:46:10;;;;;;;;;;;;;;;19.54;42.80;96025.28;6118490;19;1105;-82
2022/10/16 07:48:16;;;;;;;;;;;;;;;19.52;42.19;96027.28;6120000;19;1144;-82
2022/10/16 07:50:19;;;;;;;;;;;;;;;19.52;42.25;96027.28;6117394;19;1384;-81
2022/10/16 07:52:22;;;;;;;;;;;;;;;19.52;42.04;96029.09;6119055;19;1376;-81
2022/10/16 07:54:26;;;;;;;;;;;;;;;19.52;42.39;96029.09;6099865;19;1374;-82
2022/10/16 07:56:29;;;;;;;;;;;;;;;19.51;42.40;96028.28;6119372;19;1151;-83
2022/10/16 07:58:32;;;;;;;;;;;;;;;19.51;41.89;96028.28;6117936;19;1850;-83
2022/10/16 08:00:36;;;;;;;;;;;;;;;19.44;42.18;96030.84;6118789;19;1017;-83
2022/10/16 08:02:40;;;;;;;;;;;;;;;19.39;42.17;96025.22;6117363;19;1548;-82
2022/10/16 08:04:46;;;;;;;;;;;;;;;19.37;42.71;96027.22;6101272;19;1479;-83
2022/10/16 08:06:49;;;;;;;;;;;;;;;19.37;42.35;96029.06;6116916;19;1489;-82
2022/10/16 08:08:53;;;;;;;;;;;;;;;19.38;42.48;96034.22;6119440;19;1081;-80
2022/10/16 08:10:56;;;;;;;;;;;;;;;19.43;42.20;96031.00;6119230;19;1057;-82
2022/10/16 08:13:00;;;;;;;;;;;;;;;19.48;42.27;96027.81;6118594;19;1420;-83
2022/10/16 08:15:03;;;;;;;;;;;;;;;19.49;42.25;96030.31;6116341;19;1519;-82
2022/10/16 08:17:06;;;;;;;;;;;;;;;19.51;42.09;96027.44;6101156;19;1443;-81
2022/10/16 08:19:10;;;;;;;;;;;;;;;19.54;42.06;96024.47;6118218;19;1841;-84
2022/10/16 08:21:18;;;;;;;;;;;;;;;19.54;42.02;96027.13;6119416;19;1093;-84
2022/10/16 08:23:21;;;;;;;;;;;;;;;19.55;42.38;96018.09;6118802;19;1116;-87
2022/10/16 08:25:25;;;;;;;;;;;;;;;19.55;42.50;96023.44;6120826;19;1414;-88
2022/10/16 08:27:33;;;;;;;;;;;;;;;19.56;42.43;96025.13;6104368;19;1159;-84
2022/10/16 08:29:36;;;;;;;;;;;;;;;19.55;42.33;96020.78;6122747;19;1400;-85
2022/10/16 08:31:40;;;;;;;;;;;;;;;19.48;42.30;96023.31;6122327;19;1050;-83
2022/10/16 08:33:45;;;;;;;;;;;;;;;19.45;42.58;96015.66;6118395;19;1501;-85
2022/10/16 08:35:53;;;;;;;;;;;;;;;19.43;42.38;96013.19;6119575;19;1250;-86
2022/10/16 08:37:59;;;;;;;;;;;;;;;19.43;42.45;96020.34;6117229;19;1846;-81
2022/10/16 08:40:02;;;;;;;;;;;;;;;19.43;42.23;96017.69;6107813;19;1013;-85
2022/10/16 08:42:18;;;;;;;;;;;;;;;19.42;41.74;96018.69;6118896;19;1480;-84
2022/10/16 08:44:30;;;;;;;;;;;;;;;19.42;42.04;96022.19;6118941;19;1021;-88
2022/10/16 08:46:40;;;;;;;;;;;;;;;19.46;42.24;96014.66;6121617;19;1472;-86
2022/10/16 08:48:46;;;;;;;;;;;;;;;19.48;42.18;96017.97;6121352;19;1592;-88
2022/10/16 08:50:50;;;;;;;;;;;;;;;19.49;42.34;96022.31;6104382;19;1049;-86
2022/10/16 08:52:54;;;;;;;;;;;;;;;19.50;42.24;96021.31;6118843;19;1378;-89
2022/10/16 08:55:00;;;;;;;;;;;;;;;19.50;42.59;96017.81;6120011;19;1372;-88
2022/10/16 08:57:09;;;;;;;;;;;;;;;19.52;42.36;96026.44;6121106;19;1432;-89
2022/10/16 08:59:14;;;;;;;;;;;;;;;19.52;42.88;96023.78;6118833;19;1829;-89
2022/10/16 09:01:18;;;;;;;;;;;;;;;19.52;42.93;96029.94;6116046;19;1066;-88
2022/10/16 09:03:31;;;;;;;;;;;;;;;19.53;42.97;96017.47;6122390;19;1608;-89
2022/10/16 09:05:47;;;;;;;;;;;;;;;19.55;42.96;96023.44;6124654;19;1467;-86
2022/10/16 09:07:57;;;;;;;;;;;;;;;19.53;42.69;96020.16;6124145;19;1455;-87
2022/10/16 09:10:11;;;;;;;;;;;;;;;19.54;42.68;96021.78;6124853;19;1056;-84
2022/10/16 09:12:18;;;;;;;;;;;;;;;19.54;43.00;96019.13;6117544;19;1162;-85
2022/10/16 09:14:31;;;;;;;;;;;;;;;19.54;43.08;96021.78;6115928;19;1070;-84
2022/10/16 09:16:37;;;;;;;;;;;;;;;19.55;43.15;96023.44;6124977;19;1095;-84
2022/10/16 09:18:43;;;;;;;;;;;;;;;19.54;43.09;96021.78;6124093;19;1818;-85
2022/10/16 09:20:51;;;;;;;;;;;;;;;19.54;42.81;96016.47;6123070;19;1515;-85
2022/10/16 09:22:58;;;;;;;;;;;;;;;19.56;43.19;96019.78;6124238;19;1239;-84
2022/10/16 09:25:02;;;;;;;;;;;;;;;19.57;43.03;96018.75;6108042;19;1396;-84
2022/10/16 09:27:10;;;;;;;;;;;;;;;19.56;43.15;96017.13;6124833;19;1010;-85
2022/10/16 09:29:15;;;;;;;;;;;;;;;19.57;43.25;96016.09;6123859;19;1037;-85
2022/10/16 09:31:20;;;;;;;;;;;;;;;19.57;43.34;96016.09;6123062;19;1371;-86
2022/10/16 09:33:26;;;;;;;;;;;;;;;19.57;43.47;96022.25;6122720;19;1471;-85
2022/10/16 09:35:37;;;;;;;;;;;;;;;19.57;43.23;96005.44;6112223;19;1104;-86
2022/10/16 09:37:41;;;;;;;;;;;;;;;19.57;43.54;96013.44;6124103;19;1144;-85
2022/10/16 09:39:47;;;;;;;;;;;;;;;19.58;43.40;96009.78;6123114;19;1845;-85
2022/10/16 09:41:50;;;;;;;;;;;;;;;19.58;43.64;96007.09;6122603;19;1379;-85
2022/10/16 09:43:58;;;;;;;;;;;;;;;19.58;43.63;96002.59;6123771;19;1084;-88
2022/10/16 09:46:02;;;;;;;;;;;;;;;19.61;43.33;96004.91;6125165;19;1384;-90
2022/10/16 09:48:13;;;;;;;;;;;;;;;19.61;43.35;96004.91;6111529;19;971;-90
2022/10/16 09:50:24;;;;;;;;;;;;;;;19.61;43.69;96001.41;6129094;19;1009;-90
2022/10/16 09:52:28;;;;;;;;;;;;;;;19.61;43.70;95999.56;6124792;19;1400;-86
2022/10/16 09:54:34;;;;;;;;;;;;;;;19.60;43.50;95997.06;6123757;19;1391;-87
2022/10/16 09:56:39;;;;;;;;;;;;;;;19.61;43.93;95999.56;6125083;19;1018;-88
2022/10/16 09:58:46;;;;;;;;;;;;;;;19.61;43.63;95991.56;6109690;19;1841;-90
2022/10/16 10:00:55;;;;;;;;;;;;;;;19.60;43.91;95991.75;6125545;19;1407;-89
2022/10/16 10:02:59;;;;;;;;;;;;;;;19.62;43.86;95995.06;6126254;19;1041;-86
2022/10/16 10:05:03;;;;;;;;;;;;;;;19.62;44.01;96000.41;6126165;19;1212;-88
2022/10/16 10:07:08;;;;;;;;;;;;;;;19.60;43.87;95984.56;6123725;19;1432;-88
2022/10/16 10:09:19;;;;;;;;;;;;;;;19.61;43.94;95983.56;6117444;19;1051;-86
2022/10/16 10:11:37;;;;;;;;;;;;;;;19.61;43.88;95980.91;6117776;19;1505;-87
2022/10/16 10:13:40;;;;;;;;;;;;;;;19.62;44.05;95979.06;6123858;19;1073;-88
2022/10/16 10:15:44;;;;;;;;;;;;;;;19.61;44.08;95980.91;6124407;19;1130;-86
2022/10/16 10:17:51;;;;;;;;;;;;;;;19.62;44.15;95971.88;6123041;19;1510;-88
2022/10/16 10:20:03;;;;;;;;;;;;;;;19.62;44.09;95979.88;6122823;19;1853;-87
2022/10/16 10:22:15;;;;;;;;;;;;;;;19.63;44.11;95975.38;6108873;19;1056;-85
2022/10/16 10:24:20;;;;;;;;;;;;;;;19.33;44.04;95977.97;6122849;19;1461;-83
2022/10/16 10:26:25;;;;;;;;;;;;;;;18.96;40.36;95976.94;6123181;19;1042;-84
2022/10/16 10:28:50;;;;;;;;;;;;;;;18.78;39.03;95976.41;6120877;19;1610;-83
2022/10/16 10:30:59;;;;;;;;;;;;;;;18.70;38.97;95974.63;6122534;19;1124;-83
2022/10/16 10:33:13;;;;;;;;;;;;;;;18.65;38.36;95973.47;6105030;19;1480;-84
2022/10/16 10:35:18;;;;;;;;;;;;;;;18.63;38.30;95970.97;6119495;19;1509;-84
2022/10/16 10:37:31;;;;;;;;;;;;;;;18.61;38.46;95964.16;6123069;19;1124;-85
2022/10/16 10:39:37;;;;;;;;;;;;;;;18.63;38.14;95959.50;6122012;19;1871;-84
2022/10/16 10:41:59;;;;;;;;;;;;;;;18.65;38.25;95968.13;6122110;19;1488;-84
2022/10/16 10:44:07;;;;;;;;;;;;;;;18.65;38.46;95974.31;6104030;19;1473;-84
2022/10/16 10:46:14;;;;;;;;;;;;;;;18.57;37.67;95962.84;6120324;19;1424;-84
2022/10/16 10:48:38;;;;;;;;;;;;;;;18.51;37.01;95957.22;6119676;19;1406;-86
2022/10/16 10:50:48;;;;;;;;;;;;;;;18.50;36.61;95965.41;6120509;19;1025;-83
2022/10/16 10:52:59;;;;;;;;;;;;;;;18.45;35.82;95963.25;6120728;19;1375;-84
2022/10/16 10:55:13;;;;;;;;;;;;;;;18.53;36.79;95954.41;6104282;19;1493;-80
2022/10/16 10:57:24;;;;;;;;;;;;;;;18.80;37.67;95947.75;6121011;19;1520;-89
2022/10/16 10:59:35;;;;;;;;;;;;;;;18.99;38.76;95949.13;6121800;19;1853;-87
2022/10/16 11:01:44;;;;;;;;;;;;;;;19.11;38.48;95947.69;6121170;19;1080;-84